createdAt,value
2023-02-21T00:01:38.923Z,3.05
2023-02-21T00:04:23.799Z,3.00
2023-02-21T00:07:08.639Z,3.00
2023-02-21T00:09:53.606Z,3.02
2023-02-21T00:12:38.354Z,2.92
2023-02-21T00:15:23.738Z,2.75
2023-02-21T00:18:08.611Z,2.70
2023-02-21T00:20:53.565Z,2.64
2023-02-21T00:23:38.295Z,2.43
2023-02-21T00:26:23.502Z,2.18
2023-02-21T00:29:08.874Z,2.14
2023-02-21T00:31:53.726Z,2.10
2023-02-21T00:34:38.694Z,2.13
2023-02-21T00:37:23.480Z,2.10
2023-02-21T00:40:08.332Z,2.03
2023-02-21T00:42:53.147Z,2.04
2023-02-21T00:45:38.115Z,1.98
2023-02-21T00:48:23.411Z,1.88
2023-02-21T00:51:08.287Z,1.84
2023-02-21T00:53:53.249Z,1.83
2023-02-21T00:56:38.025Z,1.71
2023-02-21T00:59:22.863Z,1.66
2023-02-21T01:02:07.629Z,1.66
2023-02-21T01:04:52.623Z,1.64
2023-02-21T01:07:37.463Z,1.57
2023-02-21T01:10:25.262Z,1.50
2023-02-21T01:13:10.406Z,1.50
2023-02-21T01:15:55.317Z,1.46
2023-02-21T01:18:40.508Z,1.40
2023-02-21T01:21:25.349Z,1.37
2023-02-21T01:24:11.510Z,1.33
2023-02-21T01:26:56.687Z,1.34
2023-02-21T01:29:42.420Z,1.33
2023-02-21T01:32:27.233Z,1.28
2023-02-21T01:35:12.153Z,1.29
2023-02-21T01:37:59.001Z,1.27
2023-02-21T01:40:44.713Z,1.23
2023-02-21T01:43:40.219Z,1.23
2023-02-21T01:46:29.482Z,1.12
2023-02-21T01:49:18.096Z,1.11
2023-02-21T01:52:03.493Z,1.00
2023-02-21T01:54:58.389Z,0.96
2023-02-21T01:57:44.188Z,0.93
2023-02-21T02:00:31.927Z,0.97
2023-02-21T02:03:19.125Z,0.99
2023-02-21T02:06:08.110Z,0.93
2023-02-21T02:08:53.791Z,0.92
2023-02-21T02:11:57.721Z,0.95
2023-02-21T02:14:36.832Z,0.84
2023-02-21T02:17:34.169Z,0.77
2023-02-21T02:20:19.838Z,0.77
2023-02-21T02:23:12.023Z,0.77
2023-02-21T02:26:05.754Z,0.76
2023-02-21T02:28:48.367Z,0.80
2023-02-21T02:31:37.041Z,0.80
2023-02-21T02:34:45.488Z,0.70
2023-02-21T02:37:32.063Z,0.69
2023-02-21T02:40:42.625Z,0.66
2023-02-21T02:43:17.091Z,0.54
2023-02-21T02:45:48.402Z,0.59
2023-02-21T02:48:26.710Z,0.56
2023-02-21T02:50:54.883Z,0.55
2023-02-21T02:53:27.114Z,0.54
2023-02-21T02:55:57.207Z,0.50
2023-02-21T02:58:28.588Z,0.52
2023-02-21T03:01:15.741Z,0.56
2023-02-21T03:03:54.404Z,0.50
2023-02-21T03:06:51.974Z,0.52
2023-02-21T03:09:27.233Z,0.48
2023-02-21T03:12:07.381Z,0.48
2023-02-21T03:15:02.983Z,0.48
2023-02-21T03:17:32.233Z,0.45
2023-02-21T03:20:01.756Z,0.37
2023-02-21T03:22:31.077Z,0.42
2023-02-21T03:25:00.912Z,0.38
2023-02-21T03:27:29.639Z,0.33
2023-02-21T03:30:08.211Z,0.29
2023-02-21T03:32:40.354Z,0.32
2023-02-21T03:35:07.695Z,0.31
2023-02-21T03:37:37.775Z,0.34
2023-02-21T03:40:11.493Z,0.32
2023-02-21T03:42:37.969Z,0.31
2023-02-21T03:45:05.477Z,0.26
2023-02-21T03:47:32.611Z,0.28
2023-02-21T03:49:59.109Z,0.26
2023-02-21T03:52:25.672Z,0.24
2023-02-21T03:54:52.221Z,0.19
2023-02-21T03:57:20.970Z,0.19
2023-02-21T03:59:49.670Z,0.16
2023-02-21T04:02:16.301Z,0.17
2023-02-21T04:04:42.845Z,0.10
2023-02-21T04:07:17.113Z,0.10
2023-02-21T04:09:44.686Z,0.08
2023-02-21T04:12:15.992Z,0.12
2023-02-21T04:14:42.484Z,0.16
2023-02-21T04:17:08.909Z,0.14
2023-02-21T04:19:35.604Z,0.17
2023-02-21T04:22:04.247Z,0.18
2023-02-21T04:24:31.500Z,0.18
2023-02-21T04:26:58.623Z,0.11
2023-02-21T04:29:25.919Z,0.11
2023-02-21T04:31:52.547Z,0.10
2023-02-21T04:34:19.109Z,0.11
2023-02-21T04:36:46.331Z,0.10
2023-02-21T04:39:13.338Z,0.10
2023-02-21T04:41:40.028Z,0.09
2023-02-21T04:44:06.713Z,0.10
2023-02-21T04:46:34.276Z,0.13
2023-02-21T04:49:01.643Z,0.16
2023-02-21T04:51:28.035Z,0.15
2023-02-21T04:53:55.470Z,0.17
2023-02-21T04:56:25.222Z,0.15
2023-02-21T04:58:52.119Z,0.17
2023-02-21T05:01:20.603Z,0.15
2023-02-21T05:03:48.009Z,0.16
2023-02-21T05:06:20.271Z,0.10
2023-02-21T05:08:46.766Z,0.06
2023-02-21T05:11:13.513Z,0.01
2023-02-21T05:13:40.453Z,-0.04
2023-02-21T05:16:07.152Z,-0.05
2023-02-21T05:18:34.565Z,-0.05
2023-02-21T05:21:02.696Z,-0.02
2023-02-21T05:23:35.847Z,-0.07
2023-02-21T05:26:07.659Z,-0.06
2023-02-21T05:28:34.354Z,-0.03
2023-02-21T05:31:01.264Z,-0.02
2023-02-21T05:33:28.153Z,0.05
2023-02-21T05:35:56.616Z,0.05
2023-02-21T05:38:24.737Z,0.06
2023-02-21T05:40:51.883Z,0.01
2023-02-21T05:43:18.365Z,-0.03
2023-02-21T05:45:44.990Z,-0.03
2023-02-21T05:48:11.764Z,-0.02
2023-02-21T05:50:39.588Z,-0.10
2023-02-21T05:53:06.720Z,-0.11
2023-02-21T05:55:33.153Z,-0.12
2023-02-21T05:57:59.558Z,-0.08
2023-02-21T06:00:28.437Z,-0.09
2023-02-21T06:02:55.871Z,-0.15
2023-02-21T06:05:23.039Z,-0.15
2023-02-21T06:07:49.948Z,-0.09
2023-02-21T06:10:17.529Z,-0.11
2023-02-21T06:12:44.002Z,-0.14
2023-02-21T06:15:12.707Z,-0.15
2023-02-21T06:17:40.184Z,-0.17
2023-02-21T06:20:10.567Z,-0.10
2023-02-21T06:22:36.975Z,-0.12
2023-02-21T06:25:03.806Z,-0.10
2023-02-21T06:27:30.214Z,-0.02
2023-02-21T06:29:56.659Z,-0.09
2023-02-21T06:32:23.133Z,-0.13
2023-02-21T06:34:49.650Z,-0.20
2023-02-21T06:37:18.181Z,-0.21
2023-02-21T06:39:44.727Z,-0.23
2023-02-21T06:42:15.189Z,-0.23
2023-02-21T06:44:45.985Z,-0.21
2023-02-21T06:47:13.337Z,-0.18
2023-02-21T06:49:39.887Z,-0.19
2023-02-21T06:52:06.847Z,-0.20
2023-02-21T06:54:33.772Z,-0.17
2023-02-21T06:57:01.625Z,-0.13
2023-02-21T06:59:29.312Z,-0.10
2023-02-21T07:01:56.641Z,-0.05
2023-02-21T07:04:24.116Z,-0.03
2023-02-21T07:06:51.775Z,0.01
2023-02-21T07:09:18.195Z,0.02
2023-02-21T07:11:46.748Z,0.09
2023-02-21T07:14:14.199Z,0.13
2023-02-21T07:16:40.597Z,0.19
2023-02-21T07:19:07.089Z,0.24
2023-02-21T07:21:33.502Z,0.29
2023-02-21T07:23:59.914Z,0.34
2023-02-21T07:26:26.345Z,0.38
2023-02-21T07:28:52.817Z,0.39
2023-02-21T07:31:20.574Z,0.48
2023-02-21T07:33:47.266Z,0.55
2023-02-21T07:36:13.670Z,0.62
2023-02-21T07:38:40.351Z,0.71
2023-02-21T07:41:06.814Z,0.77
2023-02-21T07:43:33.237Z,0.87
2023-02-21T07:45:59.774Z,0.91
2023-02-21T07:48:26.461Z,0.98
2023-02-21T07:50:52.918Z,1.10
2023-02-21T07:53:19.663Z,1.20
2023-02-21T07:55:46.193Z,1.30
2023-02-21T07:58:12.806Z,1.40
2023-02-21T08:00:40.480Z,1.54
2023-02-21T08:03:07.334Z,1.68
2023-02-21T08:05:34.012Z,1.79
2023-02-21T08:08:00.421Z,1.89
2023-02-21T08:10:28.247Z,1.94
2023-02-21T08:12:55.108Z,2.02
2023-02-21T08:15:22.864Z,2.11
2023-02-21T08:17:49.828Z,2.20
2023-02-21T08:20:16.627Z,2.31
2023-02-21T08:22:43.141Z,2.41
2023-02-21T08:25:11.514Z,2.50
2023-02-21T08:27:42.222Z,2.63
2023-02-21T08:30:10.297Z,2.78
2023-02-21T08:32:37.006Z,2.94
2023-02-21T08:35:06.234Z,3.07
2023-02-21T08:37:36.140Z,3.19
2023-02-21T08:40:04.737Z,3.28
2023-02-21T08:42:31.164Z,3.37
2023-02-21T08:44:57.610Z,3.47
2023-02-21T08:47:24.349Z,3.60
2023-02-21T08:49:50.943Z,3.70
2023-02-21T08:52:19.599Z,3.85
2023-02-21T08:54:46.098Z,3.96
2023-02-21T08:57:13.500Z,4.09
2023-02-21T08:59:42.563Z,4.20
2023-02-21T09:02:25.214Z,4.35
2023-02-21T09:04:52.758Z,4.51
2023-02-21T09:07:21.797Z,4.62
2023-02-21T09:09:48.492Z,4.76
2023-02-21T09:12:15.004Z,4.88
2023-02-21T09:14:42.970Z,5.04
2023-02-21T09:17:12.779Z,5.15
2023-02-21T09:19:39.346Z,5.28
2023-02-21T09:22:08.613Z,5.41
2023-02-21T09:24:35.340Z,5.55
2023-02-21T09:27:04.350Z,5.72
2023-02-21T09:29:44.976Z,5.85
2023-02-21T09:32:13.386Z,6.04
2023-02-21T09:34:39.935Z,6.17
2023-02-21T09:37:07.065Z,6.32
2023-02-21T09:39:33.617Z,6.49
2023-02-21T09:42:00.119Z,6.67
2023-02-21T09:44:28.568Z,6.90
2023-02-21T09:47:00.307Z,7.11
2023-02-21T09:49:30.474Z,7.38
2023-02-21T09:51:57.988Z,7.69
2023-02-21T09:54:30.601Z,7.92
2023-02-21T09:57:00.464Z,8.12
2023-02-21T09:59:26.942Z,8.32
2023-02-21T10:01:59.564Z,8.53
2023-02-21T10:04:38.279Z,8.75
2023-02-21T10:07:21.835Z,8.97
2023-02-21T10:10:01.608Z,9.20
2023-02-21T10:12:43.805Z,9.44
2023-02-21T10:15:44.361Z,9.68
2023-02-21T10:18:29.514Z,9.96
2023-02-21T10:20:59.494Z,10.18
2023-02-21T10:23:32.753Z,10.39
2023-02-21T10:26:09.256Z,10.61
2023-02-21T10:28:37.396Z,10.84
2023-02-21T10:31:18.495Z,11.05
2023-02-21T10:33:45.209Z,11.24
2023-02-21T10:36:14.459Z,11.39
2023-02-21T10:38:46.426Z,11.57
2023-02-21T10:41:13.133Z,11.73
2023-02-21T10:43:55.124Z,11.93
2023-02-21T10:46:34.438Z,12.08
2023-02-21T10:49:19.005Z,12.22
2023-02-21T10:51:45.432Z,12.39
2023-02-21T10:54:22.239Z,12.52
2023-02-21T10:56:51.354Z,12.64
2023-02-21T10:59:30.671Z,12.77
2023-02-21T11:01:58.420Z,12.93
2023-02-21T11:04:25.447Z,13.04
2023-02-21T11:07:18.261Z,13.15
2023-02-21T11:09:46.489Z,13.23
2023-02-21T11:12:15.853Z,13.36
2023-02-21T11:14:44.074Z,13.42
2023-02-21T11:17:16.384Z,13.47
2023-02-21T11:19:51.950Z,13.65
2023-02-21T11:22:42.484Z,13.79
2023-02-21T11:25:23.419Z,13.91
2023-02-21T11:28:03.334Z,14.04
2023-02-21T11:30:33.607Z,14.12
2023-02-21T11:33:01.794Z,14.21
2023-02-21T11:35:32.583Z,14.33
2023-02-21T11:38:02.490Z,14.41
2023-02-21T11:40:50.336Z,14.51
2023-02-21T11:43:21.591Z,14.70
2023-02-21T11:46:16.614Z,14.83
2023-02-21T11:48:51.309Z,14.89
2023-02-21T11:51:32.754Z,15.02
2023-02-21T11:53:59.360Z,15.09
2023-02-21T11:56:34.247Z,15.23
2023-02-21T11:59:29.134Z,15.39
2023-02-21T12:02:40.077Z,15.58
2023-02-21T12:05:30.104Z,15.68
2023-02-21T12:08:35.281Z,15.65
2023-02-21T12:11:17.291Z,15.83
2023-02-21T12:14:14.108Z,16.01
2023-02-21T12:16:59.271Z,16.29
2023-02-21T12:19:28.608Z,16.45
2023-02-21T12:22:07.683Z,16.55
2023-02-21T12:25:00.307Z,16.70
2023-02-21T12:27:40.210Z,16.73
2023-02-21T12:30:30.928Z,16.85
2023-02-21T12:33:31.621Z,16.83
2023-02-21T12:36:45.141Z,16.94
2023-02-21T12:39:33.734Z,17.12
2023-02-21T12:42:17.727Z,17.32
2023-02-21T12:45:02.496Z,17.45
2023-02-21T12:47:35.628Z,17.64
2023-02-21T12:50:20.890Z,17.74
2023-02-21T12:53:03.335Z,17.78
2023-02-21T12:55:40.606Z,17.87
2023-02-21T12:58:26.160Z,17.93
2023-02-21T13:01:10.580Z,18.12
2023-02-21T13:03:49.961Z,18.20
2023-02-21T13:06:23.705Z,18.31
2023-02-21T13:09:10.403Z,18.22
2023-02-21T13:12:03.097Z,18.30
2023-02-21T13:14:42.157Z,18.43
2023-02-21T13:17:17.273Z,18.50
2023-02-21T13:19:49.584Z,18.60
2023-02-21T13:22:35.902Z,18.88
2023-02-21T13:25:28.913Z,18.94
2023-02-21T13:28:05.757Z,19.01
2023-02-21T13:30:32.202Z,19.09
2023-02-21T13:33:00.702Z,19.19
2023-02-21T13:35:37.081Z,19.14
2023-02-21T13:38:07.582Z,19.10
2023-02-21T13:40:47.627Z,19.29
2023-02-21T13:43:23.515Z,19.31
2023-02-21T13:45:52.738Z,19.24
2023-02-21T13:48:27.689Z,19.43
2023-02-21T13:50:56.279Z,19.49
2023-02-21T13:53:35.401Z,19.65
2023-02-21T13:56:07.691Z,19.75
2023-02-21T13:58:38.633Z,19.80
2023-02-21T14:01:30.664Z,19.79
2023-02-21T14:03:57.583Z,19.87
2023-02-21T14:06:34.526Z,19.99
2023-02-21T14:09:13.015Z,20.05
2023-02-21T14:11:46.948Z,20.03
2023-02-21T14:14:27.519Z,20.13
2023-02-21T14:17:14.556Z,20.21
2023-02-21T14:19:40.925Z,20.20
2023-02-21T14:22:26.154Z,20.33
2023-02-21T14:25:07.906Z,21.17
2023-02-21T14:27:37.828Z,22.73
2023-02-21T14:30:13.095Z,22.91
2023-02-21T14:32:46.349Z,22.52
2023-02-21T14:35:34.126Z,23.85
2023-02-21T14:38:15.711Z,24.54
2023-02-21T14:41:09.519Z,23.17
2023-02-21T14:43:56.958Z,23.33
2023-02-21T14:46:57.761Z,23.84
2023-02-21T14:49:39.205Z,25.51
2023-02-21T14:52:33.470Z,28.40
2023-02-21T14:55:29.005Z,28.65
2023-02-21T14:58:26.195Z,30.23
2023-02-21T15:01:25.531Z,30.08
2023-02-21T15:04:02.821Z,27.86
2023-02-21T15:06:31.828Z,26.44
2023-02-21T15:08:58.245Z,25.62
2023-02-21T15:11:37.634Z,25.29
2023-02-21T15:14:24.084Z,25.03
2023-02-21T15:17:00.013Z,24.42
2023-02-21T15:19:32.926Z,24.27
2023-02-21T15:22:26.363Z,24.19
2023-02-21T15:25:07.765Z,23.23
2023-02-21T15:27:35.714Z,22.52
2023-02-21T15:30:09.801Z,22.06
2023-02-21T15:32:36.568Z,21.90
2023-02-21T15:35:12.413Z,22.00
2023-02-21T15:37:42.780Z,21.86
2023-02-21T15:40:20.570Z,21.73
2023-02-21T15:42:48.081Z,21.44
2023-02-21T15:45:28.976Z,20.59
2023-02-21T15:47:58.210Z,19.92
2023-02-21T15:50:43.769Z,19.33
2023-02-21T15:53:16.891Z,18.88
2023-02-21T15:55:44.929Z,18.54
2023-02-21T15:58:18.580Z,18.15
2023-02-21T16:00:47.508Z,17.93
2023-02-21T16:03:30.239Z,17.90
2023-02-21T16:06:28.998Z,17.74
2023-02-21T16:09:05.480Z,17.27
2023-02-21T16:11:43.450Z,16.93
2023-02-21T16:14:20.580Z,16.66
2023-02-21T16:16:53.561Z,16.44
2023-02-21T16:19:23.228Z,16.19
2023-02-21T16:21:51.070Z,16.05
2023-02-21T16:24:35.894Z,16.15
2023-02-21T16:27:04.828Z,16.04
2023-02-21T16:29:31.324Z,15.82
2023-02-21T16:31:58.076Z,15.68
2023-02-21T16:34:31.479Z,15.35
2023-02-21T16:37:06.079Z,15.02
2023-02-21T16:39:32.509Z,14.73
2023-02-21T16:41:59.023Z,14.47
2023-02-21T16:44:25.538Z,14.20
2023-02-21T16:46:53.669Z,13.97
2023-02-21T16:49:20.138Z,13.80
2023-02-21T16:51:47.597Z,13.61
2023-02-21T16:54:14.107Z,13.35
2023-02-21T16:56:42.868Z,13.04
2023-02-21T16:59:11.609Z,12.89
2023-02-21T17:01:39.999Z,12.67
2023-02-21T17:04:18.438Z,12.40
2023-02-21T17:06:50.364Z,12.26
2023-02-21T17:09:20.549Z,12.01
2023-02-21T17:11:47.524Z,11.83
2023-02-21T17:14:14.136Z,11.70
2023-02-21T17:16:44.704Z,11.52
2023-02-21T17:19:16.637Z,11.35
2023-02-21T17:21:44.052Z,11.19
2023-02-21T17:24:12.506Z,10.95
2023-02-21T17:26:39.264Z,10.82
2023-02-21T17:29:06.199Z,10.62
2023-02-21T17:31:32.732Z,10.44
2023-02-21T17:33:59.218Z,10.34
2023-02-21T17:36:27.632Z,10.19
2023-02-21T17:38:54.373Z,10.15
2023-02-21T17:41:21.493Z,10.07
2023-02-21T17:43:48.497Z,10.04
2023-02-21T17:46:17.657Z,9.78
2023-02-21T17:48:44.692Z,9.66
2023-02-21T17:51:19.117Z,9.56
2023-02-21T17:53:45.508Z,9.43
2023-02-21T17:56:11.929Z,9.29
2023-02-21T17:58:38.350Z,9.08
2023-02-21T18:01:04.872Z,9.03
2023-02-21T18:03:31.288Z,9.06
2023-02-21T18:05:58.994Z,9.03
2023-02-21T18:08:25.382Z,8.77
2023-02-21T18:10:51.795Z,8.55
2023-02-21T18:13:21.372Z,8.56
2023-02-21T18:15:47.924Z,8.45
2023-02-21T18:18:14.504Z,8.36
2023-02-21T18:20:40.930Z,8.38
2023-02-21T18:23:07.401Z,8.22
2023-02-21T18:25:34.768Z,8.13
2023-02-21T18:28:02.103Z,8.03
2023-02-21T18:30:28.562Z,7.86
2023-02-21T18:32:55.262Z,7.76
2023-02-21T18:35:21.904Z,7.75
2023-02-21T18:37:48.651Z,7.69
2023-02-21T18:40:17.480Z,7.62
2023-02-21T18:42:44.880Z,7.60
2023-02-21T18:45:12.122Z,7.45
2023-02-21T18:47:38.854Z,7.28
2023-02-21T18:50:06.616Z,7.24
2023-02-21T18:52:33.012Z,7.30
2023-02-21T18:55:03.916Z,7.27
2023-02-21T18:57:30.585Z,7.17
2023-02-21T18:59:57.861Z,7.06
2023-02-21T19:02:24.259Z,7.03
2023-02-21T19:04:51.248Z,6.91
2023-02-21T19:07:17.793Z,6.81
2023-02-21T19:09:46.654Z,6.84
2023-02-21T19:12:13.125Z,6.80
2023-02-21T19:14:39.602Z,6.74
2023-02-21T19:17:07.992Z,6.72
2023-02-21T19:19:35.568Z,6.54
2023-02-21T19:22:02.008Z,6.46
2023-02-21T19:24:28.544Z,6.34
2023-02-21T19:26:55.134Z,6.27
2023-02-21T19:29:21.737Z,6.25
2023-02-21T19:31:48.590Z,6.13
2023-02-21T19:34:15.212Z,6.12
2023-02-21T19:36:41.956Z,6.08
2023-02-21T19:39:09.331Z,6.10
2023-02-21T19:41:40.287Z,6.07
2023-02-21T19:44:08.260Z,6.00
2023-02-21T19:46:35.078Z,5.94
2023-02-21T19:49:01.714Z,5.89
2023-02-21T19:51:32.078Z,5.76
2023-02-21T19:53:58.979Z,5.66
2023-02-21T19:56:27.099Z,5.59
2023-02-21T19:58:53.822Z,5.52
2023-02-21T20:01:21.442Z,5.46
2023-02-21T20:03:49.009Z,5.33
2023-02-21T20:06:16.306Z,5.29
2023-02-21T20:08:47.633Z,5.28
2023-02-21T20:11:16.753Z,5.27
2023-02-21T20:13:43.563Z,5.21
2023-02-21T20:16:11.283Z,5.16
2023-02-21T20:18:37.753Z,5.07
2023-02-21T20:21:04.442Z,4.85
2023-02-21T20:23:30.847Z,4.81
2023-02-21T20:25:58.346Z,4.76
2023-02-21T20:28:24.857Z,4.79
2023-02-21T20:30:51.346Z,4.74
2023-02-21T20:33:20.580Z,4.67
2023-02-21T20:35:48.098Z,4.70
2023-02-21T20:38:14.502Z,4.66
2023-02-21T20:40:41.150Z,4.64
2023-02-21T20:43:07.622Z,4.68
2023-02-21T20:45:34.094Z,4.68
2023-02-21T20:48:00.501Z,4.53
2023-02-21T20:50:27.323Z,4.43
2023-02-21T20:52:54.525Z,4.39
2023-02-21T20:55:22.319Z,4.38
2023-02-21T20:57:49.644Z,4.34
2023-02-21T21:00:18.444Z,4.27
2023-02-21T21:02:44.900Z,4.28
2023-02-21T21:05:13.626Z,4.32
2023-02-21T21:07:41.229Z,4.23
2023-02-21T21:10:11.037Z,4.17
2023-02-21T21:12:38.047Z,4.13
2023-02-21T21:15:05.256Z,4.09
2023-02-21T21:17:31.695Z,4.06
2023-02-21T21:19:58.555Z,4.07
2023-02-21T21:22:27.269Z,3.93
2023-02-21T21:24:53.741Z,3.80
2023-02-21T21:27:21.638Z,3.81
2023-02-21T21:29:48.736Z,3.82
2023-02-21T21:32:18.379Z,3.78
2023-02-21T21:34:47.111Z,3.82
2023-02-21T21:37:14.601Z,3.74
2023-02-21T21:39:45.781Z,3.69
2023-02-21T21:42:16.690Z,3.76
2023-02-21T21:44:57.621Z,3.71
2023-02-21T21:47:26.514Z,3.63
2023-02-21T21:49:53.298Z,3.48
2023-02-21T21:52:20.941Z,3.43
2023-02-21T21:54:47.859Z,3.40
2023-02-21T21:57:16.455Z,3.35
2023-02-21T21:59:43.790Z,3.38
2023-02-21T22:02:11.318Z,3.42
2023-02-21T22:04:39.523Z,3.32
2023-02-21T22:07:09.676Z,3.21
2023-02-21T22:09:36.507Z,3.14
2023-02-21T22:12:04.123Z,3.09
2023-02-21T22:14:30.553Z,3.11
2023-02-21T22:16:57.087Z,3.06
2023-02-21T22:19:24.938Z,3.02
2023-02-21T22:21:55.327Z,2.98
2023-02-21T22:24:23.868Z,2.89
2023-02-21T22:26:54.648Z,2.84
2023-02-21T22:29:22.307Z,2.84
2023-02-21T22:31:51.220Z,2.88
2023-02-21T22:34:24.247Z,2.88
2023-02-21T22:36:57.291Z,2.89
2023-02-21T22:39:24.873Z,2.89
2023-02-21T22:41:51.502Z,2.88
2023-02-21T22:44:18.820Z,2.85
2023-02-21T22:46:48.776Z,2.84
2023-02-21T22:49:18.345Z,2.77
2023-02-21T22:51:44.855Z,2.79
2023-02-21T22:54:15.918Z,2.83
2023-02-21T22:56:50.798Z,2.73
2023-02-21T22:59:19.274Z,2.71
2023-02-21T23:01:46.103Z,2.69
2023-02-21T23:04:32.855Z,2.70
2023-02-21T23:06:59.897Z,2.66
2023-02-21T23:09:28.666Z,2.53
2023-02-21T23:11:59.615Z,2.47
2023-02-21T23:14:27.248Z,2.43
2023-02-21T23:16:57.237Z,2.34
2023-02-21T23:19:25.346Z,2.32
2023-02-21T23:21:53.170Z,2.30
2023-02-21T23:24:21.827Z,2.23
2023-02-21T23:26:49.497Z,2.18
2023-02-21T23:29:19.315Z,2.21
2023-02-21T23:31:47.592Z,2.22
2023-02-21T23:34:14.075Z,2.24
2023-02-21T23:36:40.508Z,2.21
2023-02-21T23:39:12.314Z,2.26
2023-02-21T23:41:40.984Z,2.19
2023-02-21T23:44:10.841Z,2.13
2023-02-21T23:46:42.681Z,2.07
2023-02-21T23:49:15.369Z,1.99
2023-02-21T23:51:43.533Z,1.89
2023-02-21T23:54:10.769Z,1.86
2023-02-21T23:56:37.186Z,1.85
2023-02-21T23:59:05.891Z,1.87
